Time,TemperatureF,DewpointF,PressureIn,WindDirection,WindDirectionDegrees,WindSpeedMPH,WindSpeedGustMPH,Humidity,HourlyPrecipIn,Conditions,Clouds,dailyrainin,SoftwareType,DateUTC
2013-09-13 00:13:00,61.5,59.5,29.59,WNW,292,1.7,-999.0,93,-99.99,,,0.00,Acu-Link.com,2013-09-13 04:13:00,
2013-09-13 00:28:00,61.2,59.2,29.58,NW,315,1.7,-999.0,93,-99.99,,,0.00,Acu-Link.com,2013-09-13 04:28:00,
2013-09-13 00:44:00,60.4,58.4,29.58,NW,315,0.0,-999.0,93,-99.99,,,0.00,Acu-Link.com,2013-09-13 04:44:00,
2013-09-13 00:59:00,60.4,58.7,29.57,SSE,157,2.2,-999.0,94,-99.99,,,0.00,Acu-Link.com,2013-09-13 04:59:00,
2013-09-13 01:14:00,60.6,58.9,29.58,ESE,112,0.0,-999.0,94,-99.99,,,0.00,Acu-Link.com,2013-09-13 05:14:00,
2013-09-13 01:29:00,60.1,58.4,29.58,West,270,0.0,-999.0,94,-99.99,,,0.00,Acu-Link.com,2013-09-13 05:29:00,
2013-09-13 01:44:00,59.5,57.8,29.58,WNW,292,0.0,-999.0,94,-99.99,,,0.00,Acu-Link.com,2013-09-13 05:44:00,
2013-09-13 01:59:00,59.5,57.8,29.59,SSE,157,1.7,-999.0,94,-99.99,,,0.00,Acu-Link.com,2013-09-13 05:59:00,
2013-09-13 02:14:00,59.2,57.5,29.59,East,90,0.0,-999.0,94,-99.99,,,0.00,Acu-Link.com,2013-09-13 06:14:00,
2013-09-13 02:29:00,59.0,57.3,29.59,WNW,292,0.0,-999.0,94,-99.99,,,0.00,Acu-Link.com,2013-09-13 06:29:00,
2013-09-13 02:44:00,58.8,57.1,29.59,WNW,292,2.2,-999.0,94,-99.99,,,0.00,Acu-Link.com,2013-09-13 06:44:00,
2013-09-13 02:59:00,59.0,57.3,29.59,East,90,0.0,-999.0,94,-99.99,,,0.00,Acu-Link.com,2013-09-13 06:59:00,
2013-09-13 03:15:00,58.8,57.1,29.58,West,270,0.0,-999.0,94,-99.99,,,0.00,Acu-Link.com,2013-09-13 07:15:00,
2013-09-13 03:30:00,58.6,56.9,29.58,SE,135,0.0,-999.0,94,-99.99,,,0.00,Acu-Link.com,2013-09-13 07:30:00,
2013-09-13 03:45:00,58.5,57.1,29.60,West,270,0.0,-999.0,95,-99.99,,,0.00,Acu-Link.com,2013-09-13 07:45:00,
2013-09-13 04:00:00,59.0,57.6,29.58,ESE,112,0.0,-999.0,95,-99.99,,,0.00,Acu-Link.com,2013-09-13 08:00:00,
2013-09-13 04:16:00,59.0,57.6,29.58,ESE,112,1.7,-999.0,95,-99.99,,,0.00,Acu-Link.com,2013-09-13 08:16:00,
2013-09-13 04:31:00,58.8,57.4,29.59,WNW,292,1.7,-999.0,95,-99.99,,,0.00,Acu-Link.com,2013-09-13 08:31:00,
2013-09-13 04:46:00,59.0,57.6,29.59,SE,135,0.0,-999.0,95,-99.99,,,0.00,Acu-Link.com,2013-09-13 08:46:00,
2013-09-13 05:02:00,59.2,57.8,29.56,SE,135,2.2,-999.0,95,-99.99,,,0.01,Acu-Link.com,2013-09-13 09:02:00,
2013-09-13 05:17:00,59.0,57.6,29.58,WNW,292,4.2,-999.0,95,-99.99,,,0.01,Acu-Link.com,2013-09-13 09:17:00,
2013-09-13 05:32:00,59.0,57.6,29.58,West,270,3.7,-999.0,95,-99.99,,,0.01,Acu-Link.com,2013-09-13 09:32:00,
2013-09-13 05:47:00,59.0,57.6,29.58,West,270,2.2,-999.0,95,-99.99,,,0.01,Acu-Link.com,2013-09-13 09:47:00,
2013-09-13 06:02:00,59.2,57.8,29.58,ESE,112,2.7,-999.0,95,-99.99,,,0.01,Acu-Link.com,2013-09-13 10:02:00,
2013-09-13 06:17:00,58.8,57.4,29.59,West,270,0.0,-999.0,95,-99.99,,,0.01,Acu-Link.com,2013-09-13 10:17:00,
2013-09-13 06:32:00,58.6,57.2,29.59,South,180,0.0,-999.0,95,-99.99,,,0.01,Acu-Link.com,2013-09-13 10:32:00,
2013-09-13 06:47:00,58.1,56.7,29.60,NNW,337,3.2,-999.0,95,-99.99,,,0.01,Acu-Link.com,2013-09-13 10:47:00,
2013-09-13 07:02:00,57.9,56.5,29.60,West,270,0.0,-999.0,95,-99.99,,,0.01,Acu-Link.com,2013-09-13 11:02:00,
2013-09-13 07:18:00,57.6,56.2,29.60,West,270,0.0,-999.0,95,-99.99,,,0.01,Acu-Link.com,2013-09-13 11:18:00,
2013-09-13 07:33:00,57.4,56.0,29.60,NW,315,0.0,-999.0,95,-99.99,,,0.01,Acu-Link.com,2013-09-13 11:33:00,
2013-09-13 07:48:00,59.0,57.6,29.60,West,270,1.1,-999.0,95,-99.99,,,0.01,Acu-Link.com,2013-09-13 11:48:00,
2013-09-13 08:03:00,60.4,58.4,29.61,West,270,2.2,-999.0,93,-99.99,,,0.01,Acu-Link.com,2013-09-13 12:03:00,
2013-09-13 08:18:00,62.1,59.4,29.62,West,270,1.7,-999.0,91,-99.99,,,0.01,Acu-Link.com,2013-09-13 12:18:00,
2013-09-13 08:33:00,62.1,58.8,29.62,West,270,0.0,-999.0,89,-99.99,,,0.01,Acu-Link.com,2013-09-13 12:33:00,
2013-09-13 08:49:00,61.7,58.4,29.62,WSW,247,1.7,-999.0,89,-99.99,,,0.01,Acu-Link.com,2013-09-13 12:49:00,
2013-09-13 09:04:00,61.9,58.3,29.63,WNW,292,2.7,-999.0,88,-99.99,,,0.01,Acu-Link.com,2013-09-13 13:04:00,
2013-09-13 09:19:00,63.0,58.7,29.63,West,270,2.2,-999.0,86,-99.99,,,0.01,Acu-Link.com,2013-09-13 13:19:00,
2013-09-13 09:34:00,63.3,59.0,29.64,NNW,337,1.7,-999.0,86,-99.99,,,0.01,Acu-Link.com,2013-09-13 13:34:00,
2013-09-13 09:49:00,63.7,59.1,29.64,West,270,7.8,-999.0,85,-99.99,,,0.01,Acu-Link.com,2013-09-13 13:49:00,
2013-09-13 10:04:00,63.3,58.4,29.64,WNW,292,1.7,-999.0,84,-99.99,,,0.02,Acu-Link.com,2013-09-13 14:04:00,
2013-09-13 10:19:00,62.8,57.9,29.64,West,270,2.7,-999.0,84,-99.99,,,0.02,Acu-Link.com,2013-09-13 14:19:00,
2013-09-13 10:34:00,66.0,58.9,29.64,South,180,3.2,-999.0,78,-99.99,,,0.02,Acu-Link.com,2013-09-13 14:34:00,
2013-09-13 10:49:00,64.8,56.7,29.64,West,270,3.2,-999.0,75,-99.99,,,0.02,Acu-Link.com,2013-09-13 14:49:00,
2013-09-13 11:05:00,64.6,54.6,29.65,ESE,112,5.8,-999.0,70,-99.99,,,0.02,Acu-Link.com,2013-09-13 15:05:00,
2013-09-13 11:20:00,64.6,55.4,29.65,SSW,202,1.7,-999.0,72,-99.99,,,0.02,Acu-Link.com,2013-09-13 15:20:00,
2013-09-13 11:35:00,65.7,56.8,29.65,WNW,292,3.2,-999.0,73,-99.99,,,0.02,Acu-Link.com,2013-09-13 15:35:00,
2013-09-13 11:50:00,65.5,54.7,29.65,West,270,4.7,-999.0,68,-99.99,,,0.02,Acu-Link.com,2013-09-13 15:50:00,
2013-09-13 12:05:00,65.7,53.2,29.65,WSW,247,3.2,-999.0,64,-99.99,,,0.02,Acu-Link.com,2013-09-13 16:05:00,
2013-09-13 12:20:00,69.6,53.7,29.65,West,270,2.7,-999.0,57,-99.99,,,0.02,Acu-Link.com,2013-09-13 16:20:00,
2013-09-13 12:35:00,68.5,52.7,29.64,WNW,292,4.7,-999.0,57,-99.99,,,0.02,Acu-Link.com,2013-09-13 16:35:00,
2013-09-13 12:50:00,69.3,52.9,29.65,WNW,292,3.2,-999.0,56,-99.99,,,0.02,Acu-Link.com,2013-09-13 16:50:00,
2013-09-13 13:05:00,67.8,51.5,29.65,SE,135,3.7,-999.0,56,-99.99,,,0.02,Acu-Link.com,2013-09-13 17:05:00,
2013-09-13 13:21:00,66.9,50.2,29.65,NE,45,1.7,-999.0,55,-99.99,,,0.02,Acu-Link.com,2013-09-13 17:21:00,
2013-09-13 13:36:00,68.0,49.2,29.64,NW,315,5.3,-999.0,51,-99.99,,,0.02,Acu-Link.com,2013-09-13 17:36:00,
2013-09-13 13:51:00,68.0,49.2,29.64,West,270,8.3,-999.0,51,-99.99,,,0.02,Acu-Link.com,2013-09-13 17:51:00,
2013-09-13 14:06:00,68.2,49.9,29.64,West,270,5.8,-999.0,52,-99.99,,,0.02,Acu-Link.com,2013-09-13 18:06:00,
2013-09-13 14:21:00,67.5,49.8,29.63,West,270,5.3,-999.0,53,-99.99,,,0.02,Acu-Link.com,2013-09-13 18:21:00,
2013-09-13 14:36:00,67.8,49.5,29.64,West,270,10.4,-999.0,52,-99.99,,,0.02,Acu-Link.com,2013-09-13 18:36:00,
2013-09-13 14:51:00,66.4,49.2,29.64,West,270,7.3,-999.0,54,-99.99,,,0.02,Acu-Link.com,2013-09-13 18:51:00,
2013-09-13 15:06:00,66.7,50.0,29.64,West,270,5.8,-999.0,55,-99.99,,,0.02,Acu-Link.com,2013-09-13 19:06:00,
2013-09-13 15:21:00,68.7,48.2,29.64,SSE,157,3.7,-999.0,48,-99.99,,,0.02,Acu-Link.com,2013-09-13 19:21:00,
2013-09-13 15:37:00,68.2,48.3,29.64,WNW,292,7.3,-999.0,49,-99.99,,,0.02,Acu-Link.com,2013-09-13 19:37:00,
2013-09-13 15:52:00,68.4,49.0,29.64,NW,315,6.3,-999.0,50,-99.99,,,0.02,Acu-Link.com,2013-09-13 19:52:00,
2013-09-13 16:07:00,69.1,49.7,29.64,West,270,7.3,-999.0,50,-99.99,,,0.02,Acu-Link.com,2013-09-13 20:07:00,
2013-09-13 16:22:00,67.5,49.8,29.65,NW,315,9.4,-999.0,53,-99.99,,,0.02,Acu-Link.com,2013-09-13 20:22:00,
2013-09-13 16:37:00,66.6,49.4,29.65,West,270,6.8,-999.0,54,-99.99,,,0.02,Acu-Link.com,2013-09-13 20:37:00,
2013-09-13 16:52:00,67.1,49.9,29.66,SSW,202,3.2,-999.0,54,-99.99,,,0.02,Acu-Link.com,2013-09-13 20:52:00,
2013-09-13 17:07:00,66.9,50.2,29.66,West,270,4.2,-999.0,55,-99.99,,,0.02,Acu-Link.com,2013-09-13 21:07:00,
2013-09-13 17:22:00,66.4,49.7,29.67,West,270,6.3,-999.0,55,-99.99,,,0.02,Acu-Link.com,2013-09-13 21:22:00,
2013-09-13 17:37:00,66.0,49.4,29.67,WSW,247,7.3,-999.0,55,-99.99,,,0.02,Acu-Link.com,2013-09-13 21:37:00,
2013-09-13 17:53:00,65.7,48.6,29.68,NW,315,4.7,-999.0,54,-99.99,,,0.02,Acu-Link.com,2013-09-13 21:53:00,
2013-09-13 18:08:00,67.8,49.0,29.69,WNW,292,4.7,-999.0,51,-99.99,,,0.02,Acu-Link.com,2013-09-13 22:08:00,
2013-09-13 18:23:00,64.9,48.3,29.69,ENE,67,3.7,-999.0,55,-99.99,,,0.02,Acu-Link.com,2013-09-13 22:23:00,
2013-09-13 18:38:00,63.0,48.4,29.70,South,180,3.7,-999.0,59,-99.99,,,0.02,Acu-Link.com,2013-09-13 22:38:00,
2013-09-13 18:53:00,62.1,48.0,29.70,West,270,5.8,-999.0,60,-99.99,,,0.02,Acu-Link.com,2013-09-13 22:53:00,
2013-09-13 19:08:00,61.3,47.3,29.70,WNW,292,7.8,-999.0,60,-99.99,,,0.02,Acu-Link.com,2013-09-13 23:08:00,
2013-09-13 19:23:00,60.8,47.3,29.71,NW,315,9.4,-999.0,61,-99.99,,,0.02,Acu-Link.com,2013-09-13 23:23:00,
2013-09-13 19:38:00,60.3,47.7,29.71,WNW,292,5.8,-999.0,63,-99.99,,,0.02,Acu-Link.com,2013-09-13 23:38:00,
2013-09-13 19:53:00,59.5,47.7,29.72,West,270,3.2,-999.0,65,-99.99,,,0.02,Acu-Link.com,2013-09-13 23:53:00,
2013-09-13 20:09:00,58.8,47.9,29.73,WSW,247,3.2,-999.0,67,-99.99,,,0.02,Acu-Link.com,2013-09-14 00:09:00,
2013-09-13 20:24:00,58.5,48.0,29.75,WNW,292,3.7,-999.0,68,-99.99,,,0.02,Acu-Link.com,2013-09-14 00:24:00,
2013-09-13 20:39:00,58.1,48.0,29.76,East,90,1.7,-999.0,69,-99.99,,,0.02,Acu-Link.com,2013-09-14 00:39:00,
2013-09-13 20:54:00,57.4,47.7,29.77,West,270,5.8,-999.0,70,-99.99,,,0.02,Acu-Link.com,2013-09-14 00:54:00,
2013-09-13 21:09:00,57.2,47.9,29.77,ESE,112,2.2,-999.0,71,-99.99,,,0.02,Acu-Link.com,2013-09-14 01:09:00,
2013-09-13 21:24:00,56.5,47.2,29.77,South,180,2.2,-999.0,71,-99.99,,,0.02,Acu-Link.com,2013-09-14 01:24:00,
2013-09-13 21:39:00,56.1,46.8,29.78,West,270,3.7,-999.0,71,-99.99,,,0.02,Acu-Link.com,2013-09-14 01:39:00,
2013-09-13 21:54:00,56.3,47.0,29.78,SSW,202,0.0,-999.0,71,-99.99,,,0.02,Acu-Link.com,2013-09-14 01:54:00,
2013-09-13 22:09:00,56.3,46.6,29.79,SSE,157,2.7,-999.0,70,-99.99,,,0.02,Acu-Link.com,2013-09-14 02:09:00,
2013-09-13 22:25:00,55.8,46.5,29.80,NNW,337,0.0,-999.0,71,-99.99,,,0.02,Acu-Link.com,2013-09-14 02:25:00,
2013-09-13 22:40:00,55.8,46.5,29.80,NW,315,4.2,-999.0,71,-99.99,,,0.02,Acu-Link.com,2013-09-14 02:40:00,
2013-09-13 22:55:00,55.8,46.9,29.81,NE,45,2.7,-999.0,72,-99.99,,,0.02,Acu-Link.com,2013-09-14 02:55:00,
2013-09-13 23:10:00,55.6,47.1,29.82,NW,315,7.3,-999.0,73,-99.99,,,0.02,Acu-Link.com,2013-09-14 03:10:00,
2013-09-13 23:25:00,54.5,47.1,29.81,NE,45,2.2,-999.0,76,-99.99,,,0.02,Acu-Link.com,2013-09-14 03:25:00,
2013-09-13 23:40:00,54.3,46.5,29.81,West,270,2.2,-999.0,75,-99.99,,,0.02,Acu-Link.com,2013-09-14 03:40:00,
2013-09-13 23:55:00,54.3,46.5,29.81,SSW,202,3.2,-999.0,75,-99.99,,,0.02,Acu-Link.com,2013-09-14 03:55:00,